MMLM/LMM METAR and TAF weather

Enter ICAO airport designator
Station Type Date Time Source
MMLM METAR 2020/04/05 03:40 UTC NOAA

MMLM 050340Z 32005KT 10SM BKN070 OVC220 22/12 A2988 RMK 8/037


Station Type Date Time Source
MMLM Decoded METAR 2020/04/05 03:40 UTC NOAA

Los Mochis Airport, Mexico (MMLM) 25-41N 109-05W
Apr 04, 2020 - 11:40 PM EDT / 2020.04.05 0340 UTC
Wind: from the NW (320 degrees) at 6 MPH (5 KT):0
Visibility: 10 mile(s):0
Sky conditions: overcast
Temperature: 71 F (22 C)
Dew Point: 53 F (12 C)
Relative Humidity: 53%
Pressure (altimeter): 29.88 in. Hg (1011 hPa)
ob: MMLM 050340Z 32005KT 10SM BKN070 OVC220 22/12 A2988 RMK 8/037
cycle: 3

Station Type Date Time Source
MMLM TAF 2020/04/05 06:52 UTC NOAA

TAF MMLM 050445Z 0506/0606 32005KT P6SM SCT070 BKN200
FM051200 00000KT P6SM SCT030 BKN200
TEMPO 0512/0515 BKN020
FM051800 22005KT P6SM SCT070 BKN220
FM060300 24005KT P6SM SCT070 BKN220

Example: see airport list